Almont, Michigan
Current Conditions -  °F | °C
As of 5:33 AM on Monday 20 Oct 2014 (Local Time) from KD95 Reporting Station
Light Rain Light Rain  
Wind Chill: 42°   Ceiling: 4300
Heat Index: 46°   Visibility: 10mi
Dew Point: 43°   Wind: 7mph
Humidity: 90%   Direction: 200°SSW
Pressure: 29.85"   Gusts: NA
Location:  42.92°N, 83.04°W
Report Text: KD95 200933Z AUTO 20006KT 10SM -RA OVC043 08/06 A2985 RMK AO2 T00760060
Loading
Personal Weather Stations






























Interactive Weather Map
Tropical Storm Tracking
New forecast layout! Learn more

10-Day Weather Forecast

Advertisements
Track Severe Weather on mobile